createdAt,value
2023-05-01T00:02:02.864Z,2.40
2023-05-01T00:06:24.690Z,2.10
2023-05-01T00:10:46.426Z,2.50
2023-05-01T00:15:10.861Z,2.57
2023-05-01T00:19:32.564Z,2.40
2023-05-01T00:23:54.274Z,2.00
2023-05-01T00:28:18.182Z,2.40
2023-05-01T00:32:41.301Z,2.30
2023-05-01T00:37:03.753Z,2.37
2023-05-01T00:41:25.535Z,2.63
2023-05-01T00:45:47.360Z,2.30
2023-05-01T00:50:11.285Z,2.43
2023-05-01T00:54:33.098Z,2.70
2023-05-01T00:58:56.107Z,2.67
2023-05-01T01:03:17.840Z,2.83
2023-05-01T01:07:46.278Z,2.47
2023-05-01T01:12:15.231Z,2.83
2023-05-01T01:16:41.765Z,2.67
2023-05-01T01:21:08.753Z,3.57
2023-05-01T01:26:07.586Z,3.30
2023-05-01T01:30:47.606Z,2.97
2023-05-01T01:35:18.172Z,2.60
2023-05-01T01:39:45.860Z,2.50
2023-05-01T01:44:14.732Z,2.53
2023-05-01T01:48:40.773Z,2.60
2023-05-01T01:53:05.387Z,2.77
2023-05-01T01:57:29.150Z,2.80
2023-05-01T02:01:53.272Z,2.80
2023-05-01T02:06:17.464Z,3.20
2023-05-01T02:10:43.083Z,3.10
2023-05-01T02:15:07.554Z,2.57
2023-05-01T02:19:31.802Z,2.60
2023-05-01T02:23:54.521Z,2.80
2023-05-01T02:28:22.024Z,2.40
2023-05-01T02:32:45.161Z,2.60
2023-05-01T02:37:08.227Z,2.77
2023-05-01T02:41:32.384Z,3.07
2023-05-01T02:45:58.199Z,2.77
2023-05-01T02:50:21.036Z,2.60
2023-05-01T02:54:43.888Z,2.43
2023-05-01T02:59:05.604Z,2.40
2023-05-01T03:03:28.789Z,2.53
2023-05-01T03:07:50.598Z,2.77
2023-05-01T03:12:12.359Z,3.20
2023-05-01T03:16:34.227Z,2.93
2023-05-01T03:20:57.345Z,2.63
2023-05-01T03:25:19.061Z,2.87
2023-05-01T03:29:40.774Z,2.90
2023-05-01T03:34:02.493Z,3.00
2023-05-01T03:38:25.547Z,2.80
2023-05-01T03:42:47.502Z,2.90
2023-05-01T03:47:09.272Z,3.00
2023-05-01T03:51:30.943Z,3.07
2023-05-01T03:55:53.991Z,3.43
2023-05-01T04:00:15.962Z,3.10
2023-05-01T04:04:37.765Z,3.20
2023-05-01T04:08:59.532Z,2.90
2023-05-01T04:13:22.715Z,2.90
2023-05-01T04:17:44.648Z,3.13
2023-05-01T04:22:06.461Z,3.40
2023-05-01T04:26:28.230Z,3.20
2023-05-01T04:30:51.691Z,3.30
2023-05-01T04:35:13.464Z,3.50
2023-05-01T04:39:35.240Z,3.53
2023-05-01T04:43:57.026Z,3.60
2023-05-01T04:48:20.340Z,3.57
2023-05-01T04:52:42.186Z,3.20
2023-05-01T04:57:03.892Z,3.30
2023-05-01T05:01:25.688Z,3.20
2023-05-01T05:05:48.810Z,3.17
2023-05-01T05:10:10.858Z,3.17
2023-05-01T05:14:32.686Z,3.23
2023-05-01T05:18:55.697Z,3.30
2023-05-01T05:23:18.844Z,3.50
2023-05-01T05:27:40.600Z,2.70
2023-05-01T05:32:02.391Z,3.30
2023-05-01T05:36:24.330Z,3.47
2023-05-01T05:40:47.397Z,3.40
2023-05-01T05:45:09.889Z,3.17
2023-05-01T05:49:31.604Z,3.40
2023-05-01T05:53:53.344Z,3.00
2023-05-01T05:58:16.458Z,3.47
2023-05-01T06:02:38.236Z,2.83
2023-05-01T06:07:00.046Z,3.17
2023-05-01T06:11:22.013Z,3.27
2023-05-01T06:15:46.089Z,3.20
2023-05-01T06:20:09.345Z,3.00
2023-05-01T06:24:31.265Z,3.00
2023-05-01T06:28:53.061Z,3.10
2023-05-01T06:33:16.184Z,2.97
2023-05-01T06:37:38.141Z,3.17
2023-05-01T06:41:59.867Z,2.90
2023-05-01T06:46:21.675Z,2.70
2023-05-01T06:50:45.012Z,2.93
2023-05-01T06:55:07.597Z,2.90
2023-05-01T06:59:29.423Z,2.50
2023-05-01T07:03:51.153Z,2.30
2023-05-01T07:08:14.452Z,2.70
2023-05-01T07:12:36.415Z,2.63
2023-05-01T07:16:58.147Z,2.40
2023-05-01T07:21:20.049Z,2.43
2023-05-01T07:25:43.514Z,2.53
2023-05-01T07:30:06.705Z,2.13
2023-05-01T07:34:28.420Z,2.10
2023-05-01T07:38:50.462Z,2.10
2023-05-01T07:43:13.516Z,2.00
2023-05-01T07:47:35.311Z,2.10
2023-05-01T07:51:57.041Z,2.40
2023-05-01T07:56:18.783Z,2.00
2023-05-01T08:00:41.854Z,2.33
2023-05-01T08:05:04.210Z,2.40
2023-05-01T08:09:25.966Z,2.10
2023-05-01T08:13:48.289Z,2.20
2023-05-01T08:18:11.514Z,2.50
2023-05-01T08:22:33.283Z,2.13
2023-05-01T08:26:55.375Z,2.50
2023-05-01T08:31:17.208Z,2.50
2023-05-01T08:35:40.307Z,2.50
2023-05-01T08:40:02.032Z,2.30
2023-05-01T08:44:25.634Z,2.40
2023-05-01T08:48:48.331Z,2.07
2023-05-01T08:53:12.978Z,2.30
2023-05-01T08:57:37.687Z,2.30
2023-05-01T09:02:01.161Z,2.20
2023-05-01T09:06:23.298Z,2.17
2023-05-01T09:10:50.245Z,2.20
2023-05-01T09:15:12.244Z,2.20
2023-05-01T09:19:34.027Z,2.10
2023-05-01T09:23:55.745Z,2.27
2023-05-01T09:28:18.877Z,2.10
2023-05-01T09:32:42.571Z,2.20
2023-05-01T09:37:04.521Z,2.27
2023-05-01T09:41:26.950Z,2.40
2023-05-01T09:46:02.250Z,2.07
2023-05-01T09:50:32.260Z,2.30
2023-05-01T09:55:12.385Z,2.27
2023-05-01T09:59:34.177Z,2.57
2023-05-01T10:03:57.452Z,2.20
2023-05-01T10:08:19.301Z,2.47
2023-05-01T10:12:41.016Z,2.50
2023-05-01T10:17:17.194Z,2.43
2023-05-01T10:21:40.343Z,2.50
2023-05-01T10:26:05.240Z,2.70
2023-05-01T10:30:28.426Z,2.30
2023-05-01T10:35:07.114Z,2.27
2023-05-01T10:39:35.070Z,1.90
2023-05-01T10:44:20.909Z,2.40
2023-05-01T10:48:56.360Z,1.90
2023-05-01T10:53:18.992Z,2.67
2023-05-01T10:57:47.696Z,2.10
2023-05-01T11:02:22.181Z,2.40
2023-05-01T11:07:16.622Z,2.43
2023-05-01T11:11:48.035Z,2.13
2023-05-01T11:16:42.626Z,2.20
2023-05-01T11:21:04.852Z,1.83
2023-05-01T11:25:28.771Z,1.87
2023-05-01T11:29:50.469Z,1.70
2023-05-01T11:34:13.670Z,1.43
2023-05-01T11:38:35.584Z,1.30
2023-05-01T11:43:01.619Z,1.50
2023-05-01T11:47:23.508Z,1.23
2023-05-01T11:51:56.354Z,1.37
2023-05-01T11:56:26.512Z,1.40
2023-05-01T12:00:50.552Z,1.37
2023-05-01T12:05:15.723Z,1.37
2023-05-01T12:09:39.466Z,1.47
2023-05-01T12:14:01.491Z,1.47
2023-05-01T12:18:23.603Z,1.80
2023-05-01T12:22:51.458Z,1.70
2023-05-01T12:27:14.511Z,1.50
2023-05-01T12:31:37.052Z,1.60
2023-05-01T12:36:09.943Z,1.40
2023-05-01T12:40:31.679Z,1.77
2023-05-01T12:45:01.321Z,1.70
2023-05-01T12:49:23.583Z,1.73
2023-05-01T12:53:45.541Z,1.53
2023-05-01T12:58:07.428Z,1.43
2023-05-01T13:02:32.545Z,1.20
2023-05-01T13:06:55.163Z,1.30
2023-05-01T13:11:17.639Z,1.50
2023-05-01T13:15:39.438Z,1.50
2023-05-01T13:20:04.202Z,1.60
2023-05-01T13:24:36.184Z,1.70
2023-05-01T13:28:58.752Z,1.50
2023-05-01T13:33:20.657Z,1.40
2023-05-01T13:37:43.932Z,1.50
2023-05-01T13:42:05.819Z,1.80
2023-05-01T13:46:28.721Z,1.60
2023-05-01T13:50:50.525Z,1.70
2023-05-01T13:55:14.008Z,1.60
2023-05-01T13:59:38.961Z,1.80
2023-05-01T14:04:01.070Z,1.90
2023-05-01T14:08:28.204Z,2.60
2023-05-01T14:12:54.671Z,2.53
2023-05-01T14:17:16.528Z,2.43
2023-05-01T14:21:40.794Z,2.37
2023-05-01T14:26:02.559Z,2.00
2023-05-01T14:30:28.199Z,2.00
2023-05-01T14:34:50.016Z,2.00
2023-05-01T14:39:12.179Z,2.20
2023-05-01T14:43:35.027Z,2.53
2023-05-01T14:47:58.283Z,2.53
2023-05-01T14:52:20.485Z,2.70
2023-05-01T14:56:43.265Z,2.60
2023-05-01T15:01:05.230Z,2.80
2023-05-01T15:05:28.336Z,2.80
2023-05-01T15:09:50.310Z,3.20
2023-05-01T15:14:12.148Z,3.10
2023-05-01T15:18:33.898Z,2.83
2023-05-01T15:22:56.940Z,2.70
2023-05-01T15:27:18.770Z,2.40
2023-05-01T15:31:40.732Z,2.40
2023-05-01T15:36:02.640Z,2.63
2023-05-01T15:40:25.717Z,3.23
2023-05-01T15:44:47.950Z,2.90
2023-05-01T15:49:10.002Z,2.47
2023-05-01T15:53:31.796Z,2.50
2023-05-01T15:57:54.860Z,2.50
2023-05-01T16:02:16.617Z,2.70
2023-05-01T16:06:40.118Z,2.50
2023-05-01T16:11:03.454Z,2.30
2023-05-01T16:15:26.553Z,2.20
2023-05-01T16:19:48.394Z,2.30
2023-05-01T16:24:10.787Z,2.73
2023-05-01T16:28:33.677Z,3.37
2023-05-01T16:32:57.156Z,2.60
2023-05-01T16:37:22.854Z,2.77
2023-05-01T16:41:46.583Z,3.20
2023-05-01T16:46:09.311Z,3.20
2023-05-01T16:50:32.722Z,3.20
2023-05-01T16:54:54.448Z,3.20
2023-05-01T16:59:16.263Z,3.10
2023-05-01T17:03:37.984Z,3.40
2023-05-01T17:08:01.121Z,3.70
2023-05-01T17:12:22.981Z,3.67
2023-05-01T17:16:45.861Z,3.60
2023-05-01T17:21:08.997Z,3.83
2023-05-01T17:25:32.083Z,4.00
2023-05-01T17:29:53.766Z,4.03
2023-05-01T17:34:15.732Z,3.60
2023-05-01T17:38:37.450Z,3.80
2023-05-01T17:43:00.740Z,4.00
2023-05-01T17:47:25.225Z,4.17
2023-05-01T17:51:47.764Z,4.07
2023-05-01T17:56:09.630Z,4.07
2023-05-01T18:00:32.822Z,3.80
2023-05-01T18:04:54.538Z,3.90
2023-05-01T18:09:16.313Z,3.50
2023-05-01T18:13:38.070Z,3.30
2023-05-01T18:18:01.241Z,3.70
2023-05-01T18:22:23.432Z,3.77
2023-05-01T18:26:45.171Z,4.10
2023-05-01T18:31:07.221Z,3.87
2023-05-01T18:35:31.340Z,4.03
2023-05-01T18:39:53.068Z,4.30
2023-05-01T18:44:14.890Z,5.50
2023-05-01T18:48:36.687Z,5.90
2023-05-01T18:52:59.798Z,6.70
2023-05-01T18:57:21.870Z,7.13
2023-05-01T19:01:43.662Z,8.10
2023-05-01T19:06:05.485Z,9.10
2023-05-01T19:10:28.694Z,8.77
2023-05-01T19:14:50.444Z,8.57
2023-05-01T19:19:12.266Z,10.13
2023-05-01T19:23:34.017Z,10.13
2023-05-01T19:27:57.072Z,9.60
2023-05-01T19:32:18.949Z,8.70
2023-05-01T19:36:40.925Z,8.87
2023-05-01T19:41:02.736Z,8.90
2023-05-01T19:45:25.902Z,10.10
2023-05-01T19:49:47.795Z,9.23
2023-05-01T19:54:09.739Z,9.63
2023-05-01T19:58:31.494Z,9.77
2023-05-01T20:02:54.745Z,9.37
2023-05-01T20:07:18.623Z,9.50
2023-05-01T20:11:40.469Z,9.50
2023-05-01T20:16:02.405Z,10.07
2023-05-01T20:20:25.866Z,9.37
2023-05-01T20:24:47.872Z,9.23
2023-05-01T20:29:09.652Z,10.63
2023-05-01T20:33:31.414Z,10.70
2023-05-01T20:37:54.489Z,12.47
2023-05-01T20:42:16.236Z,11.17
2023-05-01T20:46:38.276Z,11.30
2023-05-01T20:51:00.054Z,11.53
2023-05-01T20:55:23.390Z,12.60
2023-05-01T20:59:48.697Z,11.00
2023-05-01T21:04:10.555Z,13.57
2023-05-01T21:08:33.206Z,13.17
2023-05-01T21:12:56.492Z,13.23
2023-05-01T21:17:18.637Z,12.40
2023-05-01T21:21:40.602Z,13.63
2023-05-01T21:26:02.372Z,12.50
2023-05-01T21:30:32.708Z,13.47
2023-05-01T21:34:54.662Z,13.93
2023-05-01T21:39:16.380Z,14.30
2023-05-01T21:43:38.366Z,14.87
2023-05-01T21:48:01.453Z,15.63
2023-05-01T21:52:23.592Z,18.57
2023-05-01T21:56:45.355Z,17.17
2023-05-01T22:01:07.155Z,17.43
2023-05-01T22:05:32.072Z,17.30
2023-05-01T22:09:53.854Z,21.30
2023-05-01T22:14:15.941Z,21.33
2023-05-01T22:18:37.697Z,21.03
2023-05-01T22:23:01.080Z,19.87
2023-05-01T22:27:22.972Z,20.03
2023-05-01T22:31:44.828Z,20.67
2023-05-01T22:36:07.772Z,20.83
2023-05-01T22:40:30.911Z,21.50
2023-05-01T22:44:52.663Z,21.00
2023-05-01T22:49:14.426Z,19.90
2023-05-01T22:53:36.343Z,20.07
2023-05-01T22:57:59.702Z,19.73
2023-05-01T23:02:21.602Z,20.77
2023-05-01T23:06:43.647Z,21.03
2023-05-01T23:11:05.503Z,20.77
2023-05-01T23:15:29.132Z,21.97
2023-05-01T23:19:50.886Z,20.87
2023-05-01T23:24:15.207Z,20.77
2023-05-01T23:28:41.364Z,21.57
2023-05-01T23:33:04.736Z,22.67
2023-05-01T23:37:26.777Z,21.60
2023-05-01T23:41:48.708Z,21.87
2023-05-01T23:46:10.713Z,23.07
2023-05-01T23:50:34.254Z,22.07
2023-05-01T23:54:56.058Z,21.70
2023-05-01T23:59:17.839Z,22.33
